Time;durP1;ratioP1;P1;durP2;ratioP2;P2;SDS_P1;SDS_P2;PMS_P1;PMS_P2;Temp;Humidity;BMP_temperature;BMP_pressure;BME280_temperature;BME280_humidity;BME280_pressure;Samples;Min_cycle;Max_cycle;Signal;HPM_P1;HPM_P2
2023/06/06 00:01:45;;;;;;;2.28;1.80;;;17.80;52.80;;;;;;4997410;28;20032;-90
2023/06/06 00:04:11;;;;;;;1.88;1.77;;;17.80;53.10;;;;;;4997412;28;20038;-90
2023/06/06 00:06:38;;;;;;;4.90;1.83;;;17.70;53.30;;;;;;4991574;28;20081;-90
2023/06/06 00:09:06;;;;;;;2.28;1.80;;;17.70;53.40;;;;;;4995834;28;20045;-91
2023/06/06 00:11:35;;;;;;;4.43;2.17;;;17.70;53.50;;;;;;4992125;28;20026;-90
2023/06/06 00:14:01;;;;;;;3.88;1.85;;;17.60;53.40;;;;;;4986750;28;20076;-89
2023/06/06 00:16:27;;;;;;;1.80;1.70;;;17.60;53.30;;;;;;4990263;28;20025;-89
2023/06/06 00:18:55;;;;;;;2.25;1.60;;;17.50;53.50;;;;;;4987955;28;20026;-89
2023/06/06 00:21:22;;;;;;;3.05;1.73;;;17.40;53.70;;;;;;4996926;28;20087;-90
2023/06/06 00:23:49;;;;;;;2.10;1.65;;;17.40;53.80;;;;;;5012574;28;20037;-90
2023/06/06 00:26:15;;;;;;;2.15;1.95;;;17.30;53.70;;;;;;4992617;28;20061;-90
2023/06/06 00:28:41;;;;;;;2.72;1.75;;;17.30;53.80;;;;;;4981662;28;20050;-89
2023/06/06 00:31:06;;;;;;;1.77;1.65;;;17.20;53.90;;;;;;4982523;28;20037;-89
2023/06/06 00:33:32;;;;;;;1.95;1.67;;;17.20;54.00;;;;;;4978594;28;20030;-90
2023/06/06 00:35:58;;;;;;;2.72;1.90;;;17.10;54.20;;;;;;4994095;28;20087;-90
2023/06/06 00:38:23;;;;;;;2.00;1.80;;;17.00;54.10;;;;;;4987406;28;20057;-89
2023/06/06 00:40:49;;;;;;;2.42;2.00;;;17.00;54.40;;;;;;4995058;28;20040;-89
2023/06/06 00:43:15;;;;;;;2.00;1.67;;;16.90;54.50;;;;;;4991518;28;20022;-90
2023/06/06 00:45:41;;;;;;;2.17;1.85;;;16.80;54.60;;;;;;4997224;28;20033;-90
2023/06/06 00:48:08;;;;;;;3.45;2.00;;;16.70;54.70;;;;;;4987482;28;20470;-90
2023/06/06 00:50:35;;;;;;;2.10;1.90;;;16.80;55.00;;;;;;4987892;28;20032;-88
2023/06/06 00:53:03;;;;;;;2.63;2.13;;;16.70;55.10;;;;;;4996173;28;20061;-90
2023/06/06 00:55:29;;;;;;;2.85;2.13;;;16.70;55.30;;;;;;4990807;28;20062;-89
2023/06/06 00:57:55;;;;;;;2.47;1.73;;;16.70;55.30;;;;;;4983957;28;20038;-90
2023/06/06 01:00:21;;;;;;;4.53;2.20;;;16.70;55.40;;;;;;4995233;28;20035;-90
2023/06/06 01:02:48;;;;;;;3.40;2.10;;;16.60;55.30;;;;;;4987156;28;20109;-90
2023/06/06 01:05:18;;;;;;;2.25;1.75;;;16.60;55.30;;;;;;4991813;28;20105;-90
2023/06/06 01:07:47;;;;;;;5.00;2.08;;;16.60;55.30;;;;;;4991269;28;20033;-89
2023/06/06 01:10:14;;;;;;;2.00;1.80;;;16.50;55.20;;;;;;4994493;28;20029;-89
2023/06/06 01:13:13;;;;;;;7.43;1.92;;;16.50;55.30;;;;;;5000806;28;20033;-91
2023/06/06 01:16:02;;;;;;;2.03;1.80;;;16.40;56.00;;;;;;4984709;28;20042;-91
2023/06/06 01:18:29;;;;;;;3.92;2.00;;;16.30;54.80;;;;;;4990719;28;20037;-90
2023/06/06 01:20:55;;;;;;;2.45;1.73;;;16.30;55.10;;;;;;4982722;28;20085;-90
2023/06/06 01:23:21;;;;;;;2.40;1.95;;;16.20;55.30;;;;;;4991642;28;20025;-90
2023/06/06 01:25:48;;;;;;;2.13;1.92;;;16.10;55.50;;;;;;4996120;28;20034;-90
2023/06/06 01:28:15;;;;;;;3.55;2.20;;;16.10;55.50;;;;;;4994142;28;20723;-90
2023/06/06 01:30:43;;;;;;;2.10;1.85;;;16.00;55.80;;;;;;4989682;28;20158;-91
2023/06/06 01:33:23;;;;;;;6.05;2.17;;;15.90;55.80;;;;;;4978867;28;20466;-91
2023/06/06 01:36:14;;;;;;;2.30;2.08;;;15.90;56.60;;;;;;4995902;28;20049;-90
2023/06/06 01:39:08;;;;;;;2.33;2.05;;;15.80;56.30;;;;;;4984850;28;20037;-90
2023/06/06 01:41:36;;;;;;;3.13;1.90;;;15.80;57.00;;;;;;4985745;28;20037;-91
2023/06/06 01:44:05;;;;;;;2.60;1.98;;;15.80;56.20;;;;;;4994473;28;20032;-90
2023/06/06 01:46:33;;;;;;;2.92;2.38;;;15.70;56.40;;;;;;5012667;28;20028;-91
2023/06/06 01:48:59;;;;;;;2.30;2.03;;;15.70;56.50;;;;;;4982537;28;20056;-90
2023/06/06 01:51:28;;;;;;;3.08;2.03;;;15.70;56.50;;;;;;4989374;28;20026;-90
2023/06/06 01:53:56;;;;;;;2.15;1.95;;;15.60;56.80;;;;;;4990081;28;20033;-89
2023/06/06 01:56:23;;;;;;;4.38;2.15;;;15.60;56.70;;;;;;4996257;28;20544;-91
2023/06/06 01:58:49;;;;;;;2.40;2.17;;;15.50;56.70;;;;;;4978206;28;20030;-90
2023/06/06 02:01:15;;;;;;;4.07;2.40;;;15.50;56.80;;;;;;4987745;28;20445;-89
2023/06/06 02:03:41;;;;;;;2.65;2.25;;;15.50;56.90;;;;;;4992225;28;20134;-90
2023/06/06 02:06:07;;;;;;;3.22;2.10;;;15.40;56.80;;;;;;4975070;28;20030;-91
2023/06/06 02:08:33;;;;;;;2.40;2.20;;;15.50;57.00;;;;;;4994426;28;20030;-90
2023/06/06 02:10:59;;;;;;;2.08;1.88;;;15.40;57.00;;;;;;4989016;28;20053;-89
2023/06/06 02:13:26;;;;;;;4.47;2.10;;;15.40;57.00;;;;;;4985985;28;20128;-89
2023/06/06 02:15:51;;;;;;;3.22;2.33;;;15.30;56.90;;;;;;4989568;28;20477;-90
2023/06/06 02:18:17;;;;;;;6.18;2.28;;;15.30;57.10;;;;;;4986810;28;20037;-90
2023/06/06 02:20:43;;;;;;;2.70;2.00;;;15.30;57.10;;;;;;5004162;28;20026;-90
2023/06/06 02:23:09;;;;;;;2.38;2.03;;;15.30;57.10;;;;;;4983883;28;20499;-89
2023/06/06 02:25:37;;;;;;;2.42;2.22;;;15.10;57.10;;;;;;4991355;28;20038;-90
2023/06/06 02:28:08;;;;;;;4.63;2.20;;;15.20;57.20;;;;;;4991220;28;20487;-89
2023/06/06 02:30:33;;;;;;;3.88;2.47;;;15.20;57.50;;;;;;4985804;28;20070;-90
2023/06/06 02:32:59;;;;;;;2.28;1.95;;;15.20;57.40;;;;;;4981483;28;20136;-90
2023/06/06 02:35:25;;;;;;;2.30;1.98;;;15.20;57.60;;;;;;5006756;28;20096;-90
2023/06/06 02:37:51;;;;;;;2.63;2.25;;;15.20;57.70;;;;;;4999734;28;20389;-90
2023/06/06 02:40:17;;;;;;;6.07;2.28;;;15.10;57.60;;;;;;4997401;28;20030;-89
2023/06/06 02:42:42;;;;;;;3.50;2.20;;;15.10;57.80;;;;;;4988196;28;20041;-90
2023/06/06 02:45:09;;;;;;;2.80;2.40;;;15.10;57.70;;;;;;5016099;28;20037;-90
2023/06/06 02:47:36;;;;;;;2.20;2.00;;;15.10;57.90;;;;;;4989364;28;20038;-92
2023/06/06 02:50:03;;;;;;;3.47;2.40;;;15.10;57.90;;;;;;4989388;28;20189;-91
2023/06/06 02:52:28;;;;;;;2.92;2.35;;;15.10;58.10;;;;;;4994529;28;20033;-91
2023/06/06 02:54:54;;;;;;;2.58;2.22;;;15.00;58.00;;;;;;5011533;28;20034;-90
2023/06/06 02:57:21;;;;;;;7.43;2.30;;;15.00;58.10;;;;;;4994583;28;20030;-90
2023/06/06 02:59:47;;;;;;;3.40;2.38;;;15.00;58.20;;;;;;4982784;28;20030;-91
2023/06/06 03:02:18;;;;;;;5.80;2.50;;;15.00;58.70;;;;;;4997349;28;20022;-89
2023/06/06 03:04:44;;;;;;;5.15;2.53;;;15.00;58.30;;;;;;4997118;28;20491;-89
2023/06/06 03:07:11;;;;;;;2.75;2.25;;;14.90;58.10;;;;;;4993765;28;20023;-91
2023/06/06 03:09:37;;;;;;;4.30;2.67;;;14.90;58.30;;;;;;4996084;28;20065;-90
2023/06/06 03:12:03;;;;;;;3.10;2.42;;;14.90;58.20;;;;;;4988497;28;20050;-90
2023/06/06 03:14:29;;;;;;;4.63;2.42;;;14.80;58.20;;;;;;4999981;28;20044;-90
2023/06/06 03:16:55;;;;;;;3.78;2.45;;;14.80;58.30;;;;;;4977554;28;20022;-89
2023/06/06 03:19:22;;;;;;;5.93;2.70;;;14.80;58.30;;;;;;4995566;28;20113;-89
2023/06/06 03:21:48;;;;;;;3.33;2.40;;;14.70;58.50;;;;;;4977506;28;20025;-90
2023/06/06 03:24:15;;;;;;;5.53;2.90;;;14.70;58.50;;;;;;4984807;28;20038;-90
2023/06/06 03:26:44;;;;;;;4.22;2.55;;;14.70;58.50;;;;;;5006745;28;20100;-89
2023/06/06 03:29:11;;;;;;;7.70;2.92;;;14.60;58.70;;;;;;4999300;28;20030;-89
2023/06/06 03:31:37;;;;;;;4.80;2.22;;;14.60;58.70;;;;;;4988158;28;20030;-89
2023/06/06 03:34:03;;;;;;;2.95;2.33;;;14.60;58.70;;;;;;4997594;28;20038;-89
2023/06/06 03:36:35;;;;;;;3.35;2.53;;;14.60;58.80;;;;;;4995926;28;20104;-90
2023/06/06 03:39:01;;;;;;;3.03;2.30;;;14.60;58.80;;;;;;5005340;28;20034;-89
2023/06/06 03:41:27;;;;;;;5.20;2.33;;;14.60;58.90;;;;;;4992749;28;20409;-88
2023/06/06 03:43:54;;;;;;;4.85;2.80;;;14.60;59.00;;;;;;4993129;28;20040;-93
2023/06/06 03:46:19;;;;;;;4.78;2.50;;;14.60;59.10;;;;;;5003920;28;20115;-90
2023/06/06 03:48:45;;;;;;;3.03;2.22;;;14.60;58.90;;;;;;4994753;28;20026;-88
2023/06/06 03:51:11;;;;;;;3.97;2.55;;;14.50;58.80;;;;;;4995056;28;20075;-90
2023/06/06 03:53:37;;;;;;;7.88;2.42;;;14.50;58.90;;;;;;4988024;28;20085;-90
2023/06/06 03:56:04;;;;;;;5.88;2.80;;;14.60;59.00;;;;;;4987608;28;20039;-90
2023/06/06 03:58:31;;;;;;;5.65;2.28;;;14.50;59.20;;;;;;5007361;28;20032;-89
2023/06/06 04:01:01;;;;;;;2.97;2.50;;;14.50;59.20;;;;;;4988250;28;20026;-92
2023/06/06 04:03:27;;;;;;;4.70;2.38;;;14.50;59.40;;;;;;4992989;28;20109;-88
2023/06/06 04:05:53;;;;;;;3.45;2.67;;;14.50;59.40;;;;;;4978843;28;20054;-90
2023/06/06 04:08:19;;;;;;;3.28;2.45;;;14.50;59.60;;;;;;4986818;28;20035;-89
2023/06/06 04:10:45;;;;;;;3.47;2.88;;;14.60;59.70;;;;;;4987571;28;20030;-91
2023/06/06 04:13:11;;;;;;;4.90;2.70;;;14.60;59.70;;;;;;4992330;28;20421;-90
2023/06/06 04:15:37;;;;;;;4.30;2.75;;;14.60;59.80;;;;;;4991954;28;20133;-90
2023/06/06 04:18:03;;;;;;;3.90;2.67;;;14.70;59.80;;;;;;4980233;28;20405;-90
2023/06/06 04:20:32;;;;;;;4.43;2.80;;;14.70;59.90;;;;;;4993996;28;20030;-90
2023/06/06 04:23:00;;;;;;;5.97;3.03;;;14.80;59.80;;;;;;5007803;28;20058;-90
2023/06/06 04:25:26;;;;;;;5.00;2.60;;;14.80;59.90;;;;;;4993982;28;20476;-90
2023/06/06 04:27:52;;;;;;;3.72;2.67;;;14.90;60.00;;;;;;4996130;28;20096;-89
2023/06/06 04:30:22;;;;;;;4.50;2.85;;;14.90;59.80;;;;;;4994072;28;20592;-90
2023/06/06 04:32:49;;;;;;;7.55;2.90;;;15.00;60.10;;;;;;4993773;28;20037;-89
2023/06/06 04:35:15;;;;;;;4.95;2.70;;;15.00;60.10;;;;;;5006311;28;20065;-90
2023/06/06 04:37:41;;;;;;;4.82;2.78;;;15.10;60.00;;;;;;5014095;28;20026;-90
2023/06/06 04:40:11;;;;;;;9.50;3.13;;;15.20;59.90;;;;;;4993097;28;20026;-89
2023/06/06 04:42:37;;;;;;;4.70;3.10;;;15.30;60.10;;;;;;4987159;28;20034;-89
2023/06/06 04:45:03;;;;;;;6.40;3.15;;;15.30;59.80;;;;;;4989577;28;20470;-89
2023/06/06 04:47:33;;;;;;;4.03;2.85;;;15.40;59.90;;;;;;4981949;28;20042;-90
2023/06/06 04:49:59;;;;;;;8.55;2.85;;;15.50;60.00;;;;;;4994121;28;20041;-90
2023/06/06 04:52:24;;;;;;;7.35;3.45;;;15.50;59.80;;;;;;4987752;28;20105;-89
2023/06/06 04:54:51;;;;;;;7.63;3.33;;;15.60;59.80;;;;;;4985653;28;20034;-89
2023/06/06 04:57:19;;;;;;;9.02;3.65;;;15.70;59.90;;;;;;4997987;28;20038;-90
2023/06/06 04:59:52;;;;;;;7.78;3.15;;;15.80;59.80;;;;;;4994030;28;20108;-91
2023/06/06 05:02:22;;;;;;;9.05;3.70;;;15.90;59.80;;;;;;4990379;28;20121;-89
2023/06/06 05:04:54;;;;;;;7.32;3.00;;;16.00;59.80;;;;;;4993132;28;20084;-89
2023/06/06 05:07:24;;;;;;;6.03;3.38;;;16.10;59.70;;;;;;4991673;28;20034;-90
2023/06/06 05:09:53;;;;;;;7.03;3.35;;;16.20;59.50;;;;;;4989439;28;20041;-89
2023/06/06 05:12:20;;;;;;;9.77;3.28;;;16.30;59.70;;;;;;4983971;28;20039;-90
2023/06/06 05:14:46;;;;;;;8.02;3.08;;;16.40;59.50;;;;;;4996490;28;20120;-90
2023/06/06 05:17:19;;;;;;;6.10;3.13;;;16.50;59.20;;;;;;4992050;28;20057;-89
2023/06/06 05:19:47;;;;;;;16.50;4.03;;;16.70;59.40;;;;;;4999272;28;20026;-89
2023/06/06 05:22:14;;;;;;;7.35;3.13;;;16.80;59.10;;;;;;4998548;28;20462;-89
2023/06/06 05:24:41;;;;;;;9.10;3.45;;;16.90;59.00;;;;;;5000412;28;20367;-89
2023/06/06 05:27:07;;;;;;;10.23;3.50;;;17.10;58.90;;;;;;5013387;28;20351;-89
2023/06/06 05:29:34;;;;;;;9.82;3.70;;;17.20;58.80;;;;;;4992424;28;20485;-89
2023/06/06 05:32:00;;;;;;;9.80;3.47;;;17.30;58.70;;;;;;4993791;28;20390;-89
2023/06/06 05:34:25;;;;;;;8.30;3.25;;;17.50;58.70;;;;;;4994468;28;20030;-90
2023/06/06 05:36:51;;;;;;;6.10;3.25;;;17.50;58.50;;;;;;5019060;28;20163;-89
2023/06/06 05:39:17;;;;;;;8.38;3.65;;;17.70;58.30;;;;;;5011767;28;20098;-92
2023/06/06 05:41:43;;;;;;;7.38;3.40;;;17.80;58.20;;;;;;5014182;28;20015;-95
2023/06/06 05:44:09;;;;;;;13.52;3.58;;;18.00;58.10;;;;;;5010344;28;20057;-90
2023/06/06 05:46:35;;;;;;;12.95;3.72;;;18.10;58.10;;;;;;4991341;28;20116;-89
2023/06/06 05:49:00;;;;;;;12.32;3.85;;;18.20;57.90;;;;;;4980040;28;20120;-90
2023/06/06 05:51:26;;;;;;;12.57;3.67;;;18.40;57.80;;;;;;5012447;28;20462;-89
2023/06/06 05:53:51;;;;;;;12.20;3.78;;;18.50;57.70;;;;;;5013363;28;20038;-89
2023/06/06 05:56:17;;;;;;;7.20;3.75;;;18.60;57.40;;;;;;4989150;28;20160;-87
2023/06/06 05:58:47;;;;;;;7.88;3.25;;;18.70;57.20;;;;;;5002957;28;20035;-89
2023/06/06 06:01:13;;;;;;;7.97;3.38;;;18.80;57.00;;;;;;4993995;28;20030;-89
2023/06/06 06:03:41;;;;;;;5.32;3.20;;;19.00;56.80;;;;;;5005195;28;20030;-88
2023/06/06 06:06:08;;;;;;;5.75;3.08;;;19.10;56.40;;;;;;4992270;28;20038;-88
2023/06/06 06:08:37;;;;;;;7.03;3.13;;;19.20;56.40;;;;;;5020766;28;20022;-89
2023/06/06 06:11:06;;;;;;;4.78;2.85;;;19.30;56.00;;;;;;5001968;28;20056;-89
2023/06/06 06:13:32;;;;;;;10.70;3.33;;;19.50;55.80;;;;;;4989961;28;20038;-89
2023/06/06 06:15:58;;;;;;;7.55;3.05;;;19.50;55.60;;;;;;4987164;28;20026;-90
2023/06/06 06:18:24;;;;;;;7.65;3.35;;;19.70;55.30;;;;;;5009883;28;20434;-89
2023/06/06 06:20:49;;;;;;;6.05;2.50;;;19.80;55.00;;;;;;4994848;28;20084;-89
2023/06/06 06:23:15;;;;;;;8.68;3.15;;;19.90;54.80;;;;;;4990666;28;20509;-89
2023/06/06 06:25:41;;;;;;;6.22;3.13;;;20.00;54.60;;;;;;4991400;28;20462;-89
2023/06/06 06:28:20;;;;;;;8.02;2.88;;;20.10;54.60;;;;;;5013076;28;20018;-90
2023/06/06 06:30:46;;;;;;;5.80;2.75;;;20.20;54.20;;;;;;4985713;28;20092;-90
2023/06/06 06:33:12;;;;;;;8.93;2.92;;;20.30;54.20;;;;;;4988641;28;20030;-90
2023/06/06 06:35:38;;;;;;;9.25;3.05;;;20.40;53.80;;;;;;4993594;28;20175;-89
2023/06/06 06:38:03;;;;;;;6.05;2.50;;;20.50;53.40;;;;;;4990714;28;20482;-89
2023/06/06 06:40:29;;;;;;;4.03;2.35;;;20.60;53.30;;;;;;4983168;28;20096;-89
2023/06/06 06:42:55;;;;;;;6.30;2.70;;;20.70;53.20;;;;;;4999214;28;20112;-89
2023/06/06 06:45:23;;;;;;;5.57;2.90;;;20.80;53.20;;;;;;4994576;28;20033;-88
2023/06/06 06:47:49;;;;;;;9.23;2.75;;;20.90;53.00;;;;;;4983709;28;20116;-93
2023/06/06 06:50:15;;;;;;;3.75;2.47;;;21.00;52.80;;;;;;4996241;28;20030;-89
2023/06/06 06:52:41;;;;;;;3.25;2.65;;;21.10;52.70;;;;;;4990931;28;20030;-89
2023/06/06 06:55:07;;;;;;;3.30;2.58;;;21.20;52.30;;;;;;4985619;28;20397;-90
2023/06/06 06:57:36;;;;;;;3.67;2.40;;;21.30;52.40;;;;;;4987674;28;20029;-89
2023/06/06 07:00:12;;;;;;;5.05;2.90;;;21.40;52.30;;;;;;5002007;28;20034;-91
2023/06/06 07:02:47;;;;;;;3.72;2.55;;;21.50;52.40;;;;;;4982653;28;20049;-90
2023/06/06 07:05:15;;;;;;;6.15;2.78;;;21.70;51.90;;;;;;4995468;28;20570;-90
2023/06/06 07:07:49;;;;;;;6.25;3.15;;;21.80;51.40;;;;;;4992895;28;20034;-89
2023/06/06 07:10:17;;;;;;;8.02;2.88;;;21.90;50.60;;;;;;4992764;28;20374;-89
2023/06/06 07:12:48;;;;;;;5.05;2.58;;;22.00;50.70;;;;;;5008748;28;20041;-89
2023/06/06 07:15:14;;;;;;;3.88;2.10;;;22.10;50.50;;;;;;4996106;28;20057;-90
2023/06/06 07:17:42;;;;;;;4.30;2.40;;;22.20;50.30;;;;;;4992144;28;20067;-90
2023/06/06 07:20:11;;;;;;;5.32;2.55;;;22.20;50.10;;;;;;4986994;28;20390;-89
2023/06/06 07:22:36;;;;;;;7.65;2.95;;;22.30;50.30;;;;;;4983962;28;20053;-89
2023/06/06 07:25:06;;;;;;;4.45;2.50;;;22.40;50.10;;;;;;4997232;28;20469;-89
2023/06/06 07:27:37;;;;;;;6.30;2.60;;;22.50;49.90;;;;;;4996364;28;20034;-92
2023/06/06 07:30:13;;;;;;;2.97;2.20;;;22.60;49.60;;;;;;4991083;28;20328;-90
2023/06/06 07:32:43;;;;;;;2.17;1.95;;;22.70;48.80;;;;;;4986820;28;20026;-90
2023/06/06 07:35:11;;;;;;;3.75;2.10;;;22.80;47.50;;;;;;4988240;28;20045;-90
2023/06/06 07:37:37;;;;;;;3.65;2.08;;;22.90;47.60;;;;;;4983897;28;20045;-89
2023/06/06 07:40:11;;;;;;;4.38;2.22;;;22.90;47.10;;;;;;4988676;28;20033;-88
2023/06/06 07:42:37;;;;;;;2.55;1.90;;;23.00;46.90;;;;;;4990415;28;20129;-88
2023/06/06 07:45:03;;;;;;;3.10;2.20;;;23.10;47.20;;;;;;4995882;28;20038;-89
2023/06/06 07:47:29;;;;;;;4.70;2.13;;;23.10;46.80;;;;;;4994403;28;20286;-90
2023/06/06 07:49:55;;;;;;;4.32;1.88;;;23.20;46.80;;;;;;4992267;28;20377;-89
2023/06/06 07:52:21;;;;;;;3.33;2.33;;;23.30;46.50;;;;;;4987226;28;20026;-91
2023/06/06 07:54:46;;;;;;;3.55;2.20;;;23.40;46.10;;;;;;4982412;28;20115;-90
2023/06/06 07:57:15;;;;;;;7.55;2.00;;;23.40;46.00;;;;;;4996590;28;20048;-89
2023/06/06 07:59:42;;;;;;;5.35;2.17;;;23.50;45.50;;;;;;4980901;28;20478;-89
2023/06/06 08:02:08;;;;;;;3.20;2.40;;;23.60;45.30;;;;;;4993943;28;20033;-90
2023/06/06 08:04:34;;;;;;;2.10;1.88;;;23.70;43.90;;;;;;4989556;28;20034;-89
2023/06/06 08:07:03;;;;;;;3.67;2.08;;;23.70;44.50;;;;;;4995427;28;20389;-89
2023/06/06 08:09:30;;;;;;;3.42;1.88;;;23.70;44.40;;;;;;4991299;28;20029;-89
2023/06/06 08:11:56;;;;;;;4.82;2.25;;;23.80;44.10;;;;;;4982681;28;20034;-89
2023/06/06 08:14:22;;;;;;;2.72;2.10;;;23.80;44.30;;;;;;4985544;28;20088;-89
2023/06/06 08:16:48;;;;;;;3.88;2.10;;;23.90;44.20;;;;;;4986467;28;20042;-88
2023/06/06 08:19:14;;;;;;;3.80;2.35;;;23.90;43.40;;;;;;4986404;28;20026;-89
2023/06/06 08:21:40;;;;;;;8.52;2.28;;;24.00;43.30;;;;;;4985313;28;20033;-89
2023/06/06 08:24:05;;;;;;;4.70;2.55;;;24.00;43.10;;;;;;4994554;28;20986;-88
2023/06/06 08:26:32;;;;;;;2.95;2.10;;;24.10;42.40;;;;;;4987268;28;20374;-89
2023/06/06 08:28:57;;;;;;;3.03;2.10;;;24.10;42.50;;;;;;4989831;28;20034;-89
2023/06/06 08:31:24;;;;;;;2.35;2.15;;;24.20;42.50;;;;;;4989449;28;20038;-88
2023/06/06 08:33:50;;;;;;;3.83;2.10;;;24.20;43.40;;;;;;4993721;28;20476;-89
2023/06/06 08:36:16;;;;;;;4.72;2.38;;;24.20;42.80;;;;;;4986928;28;20069;-87
2023/06/06 08:38:44;;;;;;;3.58;2.50;;;24.30;41.90;;;;;;4986550;28;20061;-88
2023/06/06 08:41:11;;;;;;;7.50;2.60;;;24.40;42.10;;;;;;4988010;28;20030;-88
2023/06/06 08:43:39;;;;;;;8.05;3.08;;;24.50;41.20;;;;;;4985730;28;20029;-89
2023/06/06 08:46:05;;;;;;;7.07;2.47;;;24.50;40.20;;;;;;4988459;28;20054;-89
2023/06/06 08:48:34;;;;;;;11.30;2.63;;;24.50;41.30;;;;;;4987144;28;20662;-89
2023/06/06 08:51:03;;;;;;;7.13;2.40;;;24.40;42.10;;;;;;4983156;28;20029;-89
2023/06/06 08:53:30;;;;;;;4.43;2.63;;;24.50;42.90;;;;;;5003127;28;20057;-88
2023/06/06 08:55:57;;;;;;;3.05;1.85;;;24.50;42.60;;;;;;4994731;28;20037;-88
2023/06/06 08:58:23;;;;;;;3.95;2.25;;;24.60;42.00;;;;;;4980215;28;20522;-93
2023/06/06 09:00:49;;;;;;;3.20;2.10;;;24.60;42.40;;;;;;4985649;28;20080;-89
2023/06/06 09:03:19;;;;;;;3.45;2.50;;;24.80;41.00;;;;;;4984108;28;20027;-89
2023/06/06 09:05:46;;;;;;;8.90;2.40;;;24.90;40.80;;;;;;4987092;28;20034;-88
2023/06/06 09:08:13;;;;;;;3.92;2.35;;;25.00;40.80;;;;;;4998286;28;20030;-90
2023/06/06 09:10:38;;;;;;;10.13;2.58;;;25.00;40.80;;;;;;5011780;28;20108;-89
2023/06/06 09:13:04;;;;;;;5.50;2.47;;;25.10;41.30;;;;;;4986598;28;20061;-89
2023/06/06 09:15:30;;;;;;;6.60;2.50;;;25.20;41.10;;;;;;4979855;28;20465;-89
2023/06/06 09:17:56;;;;;;;6.10;2.65;;;25.30;41.00;;;;;;4987414;28;20061;-88
2023/06/06 09:20:23;;;;;;;7.82;2.58;;;25.40;40.30;;;;;;4997116;28;20073;-88
2023/06/06 09:22:50;;;;;;;3.58;2.30;;;25.50;39.90;;;;;;4986371;28;20030;-88
2023/06/06 09:25:21;;;;;;;3.15;1.98;;;25.60;39.90;;;;;;4982196;28;20058;-91
2023/06/06 09:27:52;;;;;;;3.10;2.30;;;25.60;40.20;;;;;;4995972;28;20034;-89
2023/06/06 09:30:22;;;;;;;4.38;2.28;;;25.70;39.60;;;;;;5027097;28;20088;-91
2023/06/06 09:33:00;;;;;;;3.75;2.10;;;25.80;39.20;;;;;;5004864;28;20065;-88
2023/06/06 09:35:36;;;;;;;4.03;2.60;;;25.80;38.80;;;;;;5003332;28;20038;-88
2023/06/06 09:38:14;;;;;;;3.08;2.17;;;25.90;39.10;;;;;;4993059;28;20033;-90
2023/06/06 09:40:48;;;;;;;3.60;2.50;;;26.00;38.80;;;;;;4988936;28;20034;-89
2023/06/06 09:43:17;;;;;;;4.60;2.40;;;26.00;38.60;;;;;;4981215;28;20030;-89
2023/06/06 09:45:55;;;;;;;3.90;2.40;;;26.10;38.40;;;;;;4996504;28;20819;-89
2023/06/06 09:48:27;;;;;;;6.35;2.28;;;26.10;37.50;;;;;;4996288;28;20036;-87
2023/06/06 09:50:53;;;;;;;6.13;2.30;;;26.10;38.00;;;;;;4979421;28;20037;-90
2023/06/06 09:53:26;;;;;;;3.78;2.50;;;26.20;38.20;;;;;;4978746;28;20037;-88
2023/06/06 09:55:55;;;;;;;3.60;2.30;;;26.20;37.90;;;;;;4978934;28;20042;-88
2023/06/06 09:58:22;;;;;;;3.58;2.50;;;26.30;37.80;;;;;;4979434;28;20469;-89
2023/06/06 10:00:48;;;;;;;3.67;2.47;;;26.30;37.30;;;;;;4991074;28;20068;-89
2023/06/06 10:03:22;;;;;;;6.65;2.30;;;26.20;36.70;;;;;;4980316;28;20048;-88
2023/06/06 10:05:49;;;;;;;3.80;2.22;;;26.20;36.90;;;;;;4986543;28;20061;-90
2023/06/06 10:08:17;;;;;;;6.70;2.60;;;26.10;37.00;;;;;;4977524;28;20045;-89
2023/06/06 10:10:45;;;;;;;2.88;2.22;;;26.10;35.80;;;;;;4988818;28;20033;-90
2023/06/06 10:13:13;;;;;;;6.55;2.50;;;26.00;36.40;;;;;;5001339;28;20034;-88
2023/06/06 10:15:40;;;;;;;7.85;2.67;;;26.00;37.70;;;;;;4990413;28;20058;-89
2023/06/06 10:18:07;;;;;;;4.28;2.70;;;26.00;37.30;;;;;;4985734;28;20088;-88
2023/06/06 10:20:34;;;;;;;3.58;2.50;;;26.10;37.80;;;;;;4987678;28;20429;-92
2023/06/06 10:23:01;;;;;;;4.80;2.80;;;26.10;36.50;;;;;;4991156;28;20092;-89
2023/06/06 10:25:27;;;;;;;6.30;2.30;;;26.00;36.70;;;;;;4982748;28;20050;-90
2023/06/06 10:28:13;;;;;;;3.45;2.03;;;26.00;36.80;;;;;;5003947;28;20030;-86
2023/06/06 10:30:41;;;;;;;9.38;2.83;;;26.00;36.20;;;;;;4982885;28;20027;-88
2023/06/06 10:33:26;;;;;;;4.07;2.60;;;26.10;36.50;;;;;;4991058;28;20030;-87
2023/06/06 10:35:57;;;;;;;5.25;2.53;;;26.20;36.50;;;;;;4986722;28;20057;-88
2023/06/06 10:38:23;;;;;;;8.40;2.70;;;26.30;36.10;;;;;;4987181;28;20040;-90
2023/06/06 10:40:50;;;;;;;4.13;2.70;;;26.40;36.10;;;;;;4981309;28;20048;-88
2023/06/06 10:43:19;;;;;;;7.45;2.75;;;26.30;36.40;;;;;;4995968;28;20030;-91
2023/06/06 10:45:49;;;;;;;3.92;2.70;;;26.40;36.50;;;;;;4987668;28;20038;-90
2023/06/06 10:48:15;;;;;;;3.92;2.58;;;26.40;36.10;;;;;;4992150;28;20030;-89
2023/06/06 10:50:54;;;;;;;4.70;2.60;;;26.30;35.80;;;;;;4997461;28;20060;-89
2023/06/06 10:53:20;;;;;;;3.85;2.30;;;26.30;35.60;;;;;;4984086;28;20030;-87
2023/06/06 10:55:46;;;;;;;3.28;2.58;;;26.20;35.80;;;;;;4998462;28;20473;-89
2023/06/06 10:58:18;;;;;;;2.97;2.13;;;26.20;36.00;;;;;;4994062;28;20397;-88
2023/06/06 11:00:47;;;;;;;2.50;2.03;;;26.30;35.70;;;;;;4992571;28;20034;-88
2023/06/06 11:03:16;;;;;;;12.70;2.40;;;26.30;36.10;;;;;;4999667;28;20039;-89
2023/06/06 11:06:00;;;;;;;5.97;2.40;;;26.40;35.60;;;;;;4985831;28;20033;-88
2023/06/06 11:08:36;;;;;;;2.92;1.90;;;26.60;35.20;;;;;;4975687;28;20502;-88
2023/06/06 11:11:23;;;;;;;3.65;2.20;;;26.60;34.80;;;;;;4979910;28;20038;-88
2023/06/06 11:13:59;;;;;;;2.28;2.08;;;26.70;34.40;;;;;;4992364;28;20049;-90
2023/06/06 11:16:56;;;;;;;5.40;2.45;;;26.70;34.90;;;;;;4990579;28;20089;-88
2023/06/06 11:19:30;;;;;;;5.05;2.17;;;26.60;34.50;;;;;;4977161;28;20113;-90
2023/06/06 11:22:01;;;;;;;4.70;2.65;;;26.50;34.20;;;;;;4985420;28;20026;-90
2023/06/06 11:24:35;;;;;;;6.53;2.42;;;26.40;34.20;;;;;;4982562;28;20038;-91
2023/06/06 11:27:02;;;;;;;3.17;1.75;;;26.40;34.50;;;;;;5006500;28;20081;-89
2023/06/06 11:29:31;;;;;;;13.52;3.30;;;26.40;34.20;;;;;;4988062;28;20037;-89
2023/06/06 11:31:57;;;;;;;5.47;1.98;;;26.40;34.40;;;;;;4993964;28;20041;-89
2023/06/06 11:34:23;;;;;;;7.18;2.00;;;26.40;34.30;;;;;;4991539;28;20037;-89
2023/06/06 11:36:52;;;;;;;4.10;2.20;;;26.50;34.50;;;;;;4987293;28;20056;-89
2023/06/06 11:39:20;;;;;;;5.70;3.05;;;26.60;34.20;;;;;;4991934;28;20033;-89
2023/06/06 11:41:49;;;;;;;8.00;2.40;;;26.70;34.50;;;;;;4985124;28;20034;-89
2023/06/06 11:44:16;;;;;;;2.45;2.20;;;26.80;34.70;;;;;;5006069;28;20053;-88
2023/06/06 11:46:49;;;;;;;5.38;2.13;;;26.90;35.70;;;;;;4990415;28;20797;-88
2023/06/06 11:49:16;;;;;;;3.75;2.17;;;27.00;33.60;;;;;;4984910;28;20026;-88
2023/06/06 11:51:42;;;;;;;6.57;2.25;;;27.20;35.00;;;;;;4987606;28;20037;-89
2023/06/06 11:54:19;;;;;;;2.83;2.10;;;27.30;34.40;;;;;;5007737;28;20041;-87
2023/06/06 11:56:45;;;;;;;3.88;2.22;;;27.50;34.20;;;;;;4996735;28;20025;-88
2023/06/06 11:59:14;;;;;;;5.43;2.20;;;27.60;34.40;;;;;;4989196;28;20030;-91
2023/06/06 12:01:49;;;;;;;7.97;1.98;;;27.60;33.50;;;;;;5006252;28;20033;-89
2023/06/06 12:04:18;;;;;;;8.02;2.00;;;27.60;32.70;;;;;;4993858;28;20037;-89
2023/06/06 12:06:52;;;;;;;2.53;1.80;;;27.50;33.40;;;;;;4985570;28;20110;-89
2023/06/06 12:09:19;;;;;;;3.13;1.80;;;27.50;32.50;;;;;;4985650;28;20163;-89
2023/06/06 12:11:56;;;;;;;3.33;1.83;;;27.60;32.60;;;;;;4995735;28;20037;-89
2023/06/06 12:14:23;;;;;;;10.23;1.83;;;27.70;32.00;;;;;;4983075;28;20405;-88
2023/06/06 12:16:49;;;;;;;3.22;1.70;;;27.70;33.60;;;;;;4991950;28;20026;-88
2023/06/06 12:19:16;;;;;;;7.13;1.80;;;27.80;32.90;;;;;;4993843;28;20041;-90
2023/06/06 12:21:51;;;;;;;9.68;2.10;;;27.90;33.10;;;;;;4994397;28;20388;-94
2023/06/06 12:24:22;;;;;;;5.72;2.00;;;28.10;31.60;;;;;;4995263;28;20049;-89
2023/06/06 12:26:55;;;;;;;3.95;1.83;;;28.10;32.40;;;;;;4997975;28;20363;-87
2023/06/06 12:29:26;;;;;;;5.72;1.90;;;28.20;32.20;;;;;;4999931;28;20470;-90
2023/06/06 12:32:11;;;;;;;4.03;1.83;;;28.20;32.00;;;;;;4993288;28;20101;-90
2023/06/06 12:34:44;;;;;;;3.53;1.80;;;28.40;31.00;;;;;;4994121;28;20046;-93
2023/06/06 12:37:10;;;;;;;3.27;2.10;;;28.20;30.60;;;;;;4988939;28;20505;-89
2023/06/06 12:39:43;;;;;;;2.78;1.80;;;28.10;31.20;;;;;;4996270;28;20291;-88
2023/06/06 12:42:17;;;;;;;2.85;1.80;;;28.00;30.90;;;;;;4984827;28;20559;-88
2023/06/06 12:44:43;;;;;;;3.08;1.80;;;27.90;30.60;;;;;;4986317;28;20038;-88
2023/06/06 12:47:17;;;;;;;5.38;2.00;;;27.80;31.60;;;;;;4984888;28;20030;-88
2023/06/06 12:49:44;;;;;;;2.55;1.77;;;27.80;32.40;;;;;;4991312;28;20026;-88
2023/06/06 12:52:11;;;;;;;4.57;2.17;;;27.90;32.40;;;;;;4984366;28;20037;-91